Terminal Aerodrome Forecast
Issued by NWS Bismarck, ND

Home | Current Version | Previous Version | Text Only | Print | Product List | Glossary On
Versions: 1 2 3 4 5 6 7 8 9 10 11 12 13 14
784
FTUS43 KBIS 231125
TAFBIS
TAF
KBIS 231125Z 2312/2412 31016G25KT P6SM BKN025 BKN035
     FM231400 31019G28KT P6SM BKN040
     FM231700 31020G29KT P6SM SCT050
     FM240200 32010KT P6SM FEW050 FEW200=

USA.gov is the U.S. government's official web portal to all federal, state and local government web resources and services.